Download Dema Mody Aktualizacje Programy Tapety

Gry RPG gry i dema, download

Darmowe pobieranie, Gry RPG: pełne wersje gier i wersje demonstracyjne.

Download Gry RPG, 129 plików do pobrania, za darmo i legalnie na twój komputer PC lub laptop. Gry RPG pełne wersje gier i Gry RPG wersje demonstracyjne. Polecamy między innymi gry Project Zomboid, Mount & Blade: Warband, The Elder Scrolls II: Daggerfall, Diablo II, Purge, Gothic, Dink Smallwood, The Legend of Zelda: A Link to the Past, Wiedźmin, Ogniem i Mieczem: Dzikie Pola. Zagraj za darmo w najlepsze gry.

Gry RPG pełna lista. Gry i dema do pobrania.

Klikając na nagłówki kolumn z plikami poniżej możesz posortować pliki alfabetycznie, według typu, rozmiaru pliku, daty publikacji, sumarycznej ilości pobrań i ilości pobrań w ostatnich 7 dniach.

Nazwa

Typ

Rozmiar

Data

Pobrań

7 dni

Final Fantasy XIV: Shadowbringers - Benchmark demo 2034,7 MB 2021.07.05 46 17
Underrail - v.0.1.4.1 demo 578,3 MB 2021.07.04 31 8
Project Zomboid - v.2.9.7 demo 305,9 MB 2021.06.23 179 64
Kenshi - v.0.6.7.2 demo 1427,1 MB 2021.06.23 50 14
The Legend of Zelda: A Link to the Past - The Legend of Zelda: Mystery of Solarus DX v.1.1.2.3 gra 34,6 MB 2021.06.09 157 25
The Legend of Zelda: A Link to the Past - Osana's Revenge Osana's Revenge v.1.1 gra 23,4 MB 2021.06.09 54 7
The Legend of Zelda: A Link to the Past - The Legend of Zelda: Return of the Hylian SE v.1.2.1 gra 21 MB 2021.06.07 52 8
The Legend of Zelda: A Link to the Past - Yarntown v.1.0.6 gra 34,3 MB 2021.06.06 65 6
The Legend of Zelda: A Link to the Past - The Legend of Zelda: Mystery of Solarus XD v.1.1.2.2 gra 19,1 MB 2021.06.06 38 8
Tales of Maj'Eyal - Tales of Maj'Eyal v.1.7.3 gra 487,4 MB 2021.06.09 314 14
Dink Smallwood - GNU FreeDink v.1.0.8 gra 36,8 MB 2021.03.14 229 7
The Elder Scrolls II: Daggerfall - Daggerfall: Red Gauntlet gra 103,4 MB 2021.03.14 2,7K 11
Serpent in the Staglands demo 274,5 MB 2015.05.29 3,6K 4
Izle - alpha demo 183,4 MB 2015.04.15 2,9K 1
Edge of Eternity demo 736,1 MB 2015.02.19 4,6K 8
InSomnia: The Ark demo 433,5 MB 2014.07.14 8,1K 11
Eschalon: Book III demo 493,2 MB 2014.02.20 1,9K 2
Blackguards demo 2146,1 MB 2014.03.06 5,3K 8
Drox Operative: Invasion of the Ancients - v.1.033 demo 136,3 MB 2013.11.26 1,9K 1
Final Fantasy XIV Online - benchmark demo 2636,6 MB 2013.08.02 4K 9
Sword of the Stars: The Pit - ENG demo 326,4 MB 2013.03.18 1,6K 3
Drox Operative - v.1.000 demo 116 MB 2012.12.12 1,3K 1
Torchlight II - ENG demo 1338,5 MB 2012.09.21 6,2K 7
Dink Smallwood - Dink Smallwood HD gra 45,9 MB 2012.04.13 22,9K 29
Avernum: Escape from the Pit - ENG demo 153,4 MB 2012.04.13 2,2K 2
Age of Decadence - Beta ENG demo 256,1 MB 2012.03.23 2,5K 0
Dungeon Defenders - ENG demo 1248,6 MB 2011.10.21 3,7K 7
Chantelise: A Tale of Two Sisters - ENG demo 243,2 MB 2011.07.26 1,8K 1
Faery: Legends of Avalon - ENG demo 650,6 MB 2011.05.18 2,4K 4
Ogniem i Mieczem: Dzikie Pola - v.1.138 demo 835,2 MB 2011.05.04 26,4K 21
Starpoint Gemini - ENG demo 754,1 MB 2011.03.24 1,7K 1
Dragon Age II - PL demo 1971,3 MB 2011.02.22 14,4K 1
Divinity II: The Dragon Knight Saga - ENG demo 2149,4 MB 2010.12.25 7,8K 10
Wiedźmin - PL demo 2065,7 MB 2010.09.29 40K 25
Arcania: Gothic 4 - ENG demo 1749,9 MB 2010.09.23 33,1K 2
Mount & Blade: Warband - v.1.132 demo 585,5 MB 2010.10.05 72,2K 60
Recettear: An Item Shop's Tale - ENG demo 76,2 MB 2010.07.22 2,2K 1
Mass Effect 2 - ENG demo 1916,7 MB 2010.06.15 8,4K 18
Divinity II: Ego Draconis - ENG demo 1811,8 MB 2009.12.22 6,4K 1
Greed: Black Border - ENG demo 458,8 MB 2009.12.11 2,6K 2
Torchlight - v.1.15 demo 410,9 MB 2011.03.21 8,6K 1
Risen - ENG demo 1110 MB 2009.10.02 20,4K 7
The Elder Scrolls II: Daggerfall gra 148,7 MB 2009.07.10 29,1K 55
Overlord II - ENG demo 964,4 MB 2009.06.11 9,9K 2
Aztaka - ENG demo 893,5 MB 2009.06.08 2,6K 0
The Last Remnant demo 1034 MB 2009.02.26 11,1K 9
Drakensang: The Dark Eye - PL demo 666,8 MB 2008.12.11 13,2K 5
Mount & Blade - v.1.011 demo 378,3 MB 2008.11.04 30,8K 11
Penny Arcade Adventures: On the Rain-Slick Precipice of Darkness - episode #2 demo 309,9 MB 2008.10.30 3K 4
Sacred 2: Fallen Angel - ENG demo 1748,8 MB 2008.09.30 15,1K 3
Legend: Hand of God - ENG demo 1789,4 MB 2008.07.30 5,6K 3
Space Siege demo 935 MB 2008.07.29 3,4K 0
Penny Arcade Adventures: On the Rain-Slick Precipice of Darkness - episode #1 demo 208,8 MB 2008.05.21 2,5K 1
Avernum 5 demo 27,7 MB 2008.02.19 1,9K 1
1 2 3